Time;durP1;ratioP1;P1;durP2;ratioP2;P2;SDS_P1;SDS_P2;PMS_P1;PMS_P2;Temp;Humidity;BMP_temperature;BMP_pressure;BME280_temperature;BME280_humidity;BME280_pressure;Samples;Min_cycle;Max_cycle;Signal;HPM_P1;HPM_P2
2020/12/23 00:01:17;;;;;;;1.10;1.00;;;20.50;52.80;;;;;;5053202;28;20507;-74
2020/12/23 00:03:43;;;;;;;0.73;0.73;;;20.50;52.80;;;;;;5058394;28;20032;-75
2020/12/23 00:06:09;;;;;;;2.80;0.93;;;20.50;52.80;;;;;;5065930;28;20092;-75
2020/12/23 00:08:34;;;;;;;1.63;0.70;;;20.50;53.50;;;;;;5064487;28;20077;-75
2020/12/23 00:11:00;;;;;;;1.55;0.68;;;20.50;52.80;;;;;;5070468;28;20032;-74
2020/12/23 00:13:26;;;;;;;1.23;0.60;;;20.50;52.80;;;;;;5073483;28;20028;-74
2020/12/23 00:15:51;;;;;;;1.02;0.70;;;20.50;53.50;;;;;;5073846;28;20021;-75
2020/12/23 00:18:17;;;;;;;1.77;0.98;;;20.50;52.90;;;;;;5069751;28;20112;-76
2020/12/23 00:20:42;;;;;;;1.80;0.63;;;20.50;52.90;;;;;;5073218;28;20020;-75
2020/12/23 00:23:08;;;;;;;0.73;0.70;;;20.50;52.90;;;;;;5071457;28;20123;-75
2020/12/23 00:25:33;;;;;;;1.48;0.88;;;20.50;52.80;;;;;;5055539;28;20036;-75
2020/12/23 00:27:59;;;;;;;1.67;0.70;;;20.50;52.80;;;;;;5073461;28;20016;-76
2020/12/23 00:30:31;;;;;;;2.35;0.65;;;20.50;52.80;;;;;;5053361;28;20032;-75
2020/12/23 00:32:56;;;;;;;1.83;0.60;;;20.50;52.80;;;;;;5074027;28;20037;-75
2020/12/23 00:35:22;;;;;;;1.77;0.80;;;20.50;52.80;;;;;;5055138;28;20055;-74
2020/12/23 00:37:47;;;;;;;3.08;0.43;;;20.50;52.80;;;;;;5070073;28;20384;-76
2020/12/23 00:40:13;;;;;;;1.40;0.90;;;20.50;52.70;;;;;;5068490;28;20076;-75
2020/12/23 00:42:38;;;;;;;1.17;1.00;;;20.50;52.80;;;;;;5073164;28;20029;-75
2020/12/23 00:45:04;;;;;;;1.50;1.08;;;20.50;52.80;;;;;;5044603;28;20032;-75
2020/12/23 00:47:30;;;;;;;1.55;0.93;;;20.50;52.80;;;;;;5055465;28;20041;-75
2020/12/23 00:49:55;;;;;;;2.15;1.35;;;20.50;52.80;;;;;;5057627;28;20530;-75
2020/12/23 00:52:21;;;;;;;1.73;1.20;;;20.50;52.80;;;;;;5066476;28;20047;-75
2020/12/23 00:54:46;;;;;;;2.13;0.90;;;20.50;52.80;;;;;;5055851;28;20029;-75
2020/12/23 00:57:12;;;;;;;4.18;1.67;;;20.50;52.80;;;;;;5062531;28;20017;-76
2020/12/23 00:59:40;;;;;;;2.13;1.60;;;20.50;52.80;;;;;;5071734;28;20021;-75
2020/12/23 01:02:06;;;;;;;1.23;1.13;;;20.40;52.80;;;;;;5048817;28;20033;-76
2020/12/23 01:04:31;;;;;;;3.05;1.83;;;20.40;52.80;;;;;;5061680;28;20036;-76
2020/12/23 01:06:57;;;;;;;1.75;1.48;;;20.40;53.40;;;;;;5061408;28;20107;-76
2020/12/23 01:09:23;;;;;;;4.00;1.98;;;20.40;52.80;;;;;;5060395;28;20438;-76
2020/12/23 01:11:49;;;;;;;2.40;1.50;;;20.40;52.80;;;;;;5028826;28;20028;-76
2020/12/23 01:14:15;;;;;;;4.97;1.50;;;20.40;52.80;;;;;;5050377;28;20024;-75
2020/12/23 01:16:41;;;;;;;1.20;0.85;;;20.40;52.80;;;;;;5057437;28;20024;-76
2020/12/23 01:19:06;;;;;;;4.18;1.58;;;20.40;52.90;;;;;;5073308;28;20028;-76
2020/12/23 01:21:32;;;;;;;2.45;1.00;;;20.40;53.00;;;;;;5060949;28;20060;-76
2020/12/23 01:23:57;;;;;;;1.05;1.05;;;20.40;52.90;;;;;;5063169;28;20520;-75
2020/12/23 01:26:23;;;;;;;1.83;0.80;;;20.40;52.90;;;;;;5072068;28;20032;-76
2020/12/23 01:28:48;;;;;;;1.33;1.00;;;20.40;53.00;;;;;;5069244;28;20051;-75
2020/12/23 01:31:14;;;;;;;1.90;1.13;;;20.40;53.00;;;;;;5071635;28;20021;-75
2020/12/23 01:33:40;;;;;;;1.80;1.05;;;20.40;53.60;;;;;;5036464;28;20040;-75
2020/12/23 01:36:05;;;;;;;0.80;0.80;;;20.40;53.00;;;;;;5072833;28;20029;-74
2020/12/23 01:38:31;;;;;;;1.35;0.82;;;20.40;53.00;;;;;;5072816;28;20524;-75
2020/12/23 01:41:01;;;;;;;0.98;0.70;;;20.40;53.00;;;;;;5072613;28;20402;-73
2020/12/23 01:43:27;;;;;;;0.75;0.73;;;20.30;53.00;;;;;;5072873;28;20095;-73
2020/12/23 01:45:53;;;;;;;0.70;0.70;;;20.40;53.00;;;;;;5072427;28;20115;-73
2020/12/23 01:48:22;;;;;;;1.83;0.98;;;20.30;53.00;;;;;;5020643;28;20040;-72
2020/12/23 01:50:48;;;;;;;0.80;0.70;;;20.30;53.00;;;;;;5062460;28;20028;-73
2020/12/23 01:53:17;;;;;;;3.05;0.95;;;20.30;53.00;;;;;;5062640;28;20555;-73
2020/12/23 01:55:46;;;;;;;2.35;0.85;;;20.30;53.10;;;;;;5043559;28;20035;-73
2020/12/23 01:58:14;;;;;;;1.02;0.90;;;20.30;53.10;;;;;;5071494;28;20031;-73
2020/12/23 02:00:40;;;;;;;2.35;0.55;;;20.30;53.00;;;;;;5063403;28;20115;-73
2020/12/23 02:03:10;;;;;;;1.15;0.63;;;20.30;53.10;;;;;;5059695;28;20174;-72
2020/12/23 02:05:36;;;;;;;0.68;0.52;;;20.30;53.00;;;;;;5046601;28;20055;-72
2020/12/23 02:08:02;;;;;;;0.98;0.75;;;20.30;53.00;;;;;;5053262;28;20051;-72
2020/12/23 02:10:28;;;;;;;4.05;0.80;;;20.30;53.00;;;;;;5072268;28;20431;-72
2020/12/23 02:12:53;;;;;;;1.15;0.60;;;20.30;53.00;;;;;;5043900;28;20035;-72
2020/12/23 02:15:19;;;;;;;0.50;0.50;;;20.30;53.00;;;;;;5069289;28;20039;-72
2020/12/23 02:17:45;;;;;;;0.75;0.60;;;20.30;53.00;;;;;;5064271;28;20032;-72
2020/12/23 02:20:13;;;;;;;0.60;0.60;;;20.30;53.60;;;;;;5055029;28;20075;-72
2020/12/23 02:22:39;;;;;;;1.85;0.40;;;20.30;53.00;;;;;;5045725;28;20102;-72
2020/12/23 02:25:05;;;;;;;0.40;0.40;;;20.40;53.10;;;;;;5051441;28;20500;-72
2020/12/23 02:27:30;;;;;;;0.75;0.55;;;20.30;53.00;;;;;;5059251;28;20045;-72
2020/12/23 02:29:57;;;;;;;0.40;0.25;;;20.30;53.00;;;;;;5037794;28;20052;-73
2020/12/23 02:32:23;;;;;;;0.60;0.60;;;20.40;53.10;;;;;;5054053;28;20450;-72
2020/12/23 02:34:49;;;;;;;0.75;0.60;;;20.40;53.00;;;;;;5043354;28;20036;-73
2020/12/23 02:37:15;;;;;;;1.20;0.50;;;20.40;53.00;;;;;;5076202;28;20031;-73
2020/12/23 02:39:43;;;;;;;0.80;0.45;;;20.40;53.10;;;;;;5066316;28;20041;-72
2020/12/23 02:42:09;;;;;;;0.75;0.50;;;20.40;53.00;;;;;;5071533;28;20031;-73
2020/12/23 02:44:35;;;;;;;0.30;0.25;;;20.30;53.00;;;;;;5046325;28;20036;-73
2020/12/23 02:47:04;;;;;;;3.97;0.30;;;20.30;53.60;;;;;;5076409;28;20020;-73
2020/12/23 02:49:30;;;;;;;0.32;0.30;;;20.30;53.00;;;;;;5060011;28;20036;-74
2020/12/23 02:51:58;;;;;;;1.27;0.30;;;20.30;53.10;;;;;;5067575;28;20028;-73
2020/12/23 02:54:24;;;;;;;1.65;0.30;;;20.40;53.10;;;;;;5075986;28;20033;-72
2020/12/23 02:56:49;;;;;;;0.30;0.30;;;20.30;53.10;;;;;;5060208;28;20021;-72
2020/12/23 02:59:15;;;;;;;0.55;0.30;;;20.30;53.00;;;;;;5021477;28;20037;-74
2020/12/23 03:01:41;;;;;;;0.10;0.10;;;20.40;53.20;;;;;;5058173;28;20381;-74
2020/12/23 03:04:06;;;;;;;0.20;0.20;;;20.30;53.10;;;;;;5045215;28;20067;-74
2020/12/23 03:06:32;;;;;;;0.30;0.30;;;20.30;53.20;;;;;;5075314;28;20029;-74
2020/12/23 03:08:58;;;;;;;0.30;0.30;;;20.30;53.20;;;;;;5075892;28;20037;-74
2020/12/23 03:11:24;;;;;;;0.20;0.20;;;20.30;53.20;;;;;;5041009;28;20037;-75
2020/12/23 03:13:49;;;;;;;0.30;0.30;;;20.30;53.20;;;;;;5074526;28;20016;-77
2020/12/23 03:16:15;;;;;;;0.80;0.30;;;20.30;53.30;;;;;;5057187;28;20068;-74
2020/12/23 03:18:41;;;;;;;0.20;0.10;;;20.30;53.20;;;;;;5075492;28;20025;-74
2020/12/23 03:21:07;;;;;;;0.03;0.03;;;20.30;53.30;;;;;;5041996;28;20056;-74
2020/12/23 03:23:32;;;;;;;0.30;0.30;;;20.20;53.30;;;;;;5044992;28;20127;-75
2020/12/23 03:25:58;;;;;;;0.77;0.63;;;20.20;53.30;;;;;;5074004;28;20052;-73
2020/12/23 03:28:24;;;;;;;0.95;0.20;;;20.20;53.40;;;;;;5069295;28;20028;-72
2020/12/23 03:30:49;;;;;;;0.35;0.10;;;20.20;53.40;;;;;;5053300;28;20036;-72
2020/12/23 03:33:15;;;;;;;0.68;0.28;;;20.20;53.40;;;;;;5044484;28;20053;-72
2020/12/23 03:35:40;;;;;;;0.38;0.13;;;20.20;53.40;;;;;;5037181;28;20037;-72
2020/12/23 03:38:06;;;;;;;0.22;0.10;;;20.20;53.40;;;;;;5066701;28;20024;-71
2020/12/23 03:40:31;;;;;;;0.82;0.20;;;20.20;53.40;;;;;;5066587;28;20024;-72
2020/12/23 03:42:57;;;;;;;0.22;0.17;;;20.30;53.50;;;;;;5074995;28;20036;-72
2020/12/23 03:45:22;;;;;;;0.38;0.20;;;20.20;53.40;;;;;;5065603;28;20110;-72
2020/12/23 03:47:48;;;;;;;0.47;0.10;;;20.30;54.00;;;;;;5051103;28;20062;-72
2020/12/23 03:50:14;;;;;;;0.85;0.20;;;20.20;53.30;;;;;;5075455;28;20077;-72
2020/12/23 03:52:39;;;;;;;0.10;0.10;;;20.20;53.30;;;;;;5060136;28;20028;-72
2020/12/23 03:55:05;;;;;;;4.35;0.75;;;20.30;53.30;;;;;;5074094;28;20499;-73
2020/12/23 03:57:30;;;;;;;0.13;0.13;;;20.20;53.30;;;;;;5044676;28;20491;-72
2020/12/23 03:59:56;;;;;;;0.40;0.20;;;20.20;53.30;;;;;;5062475;28;20020;-72
2020/12/23 04:02:21;;;;;;;0.75;0.30;;;20.20;53.20;;;;;;5064857;28;20056;-72
2020/12/23 04:04:47;;;;;;;1.45;0.20;;;20.30;53.30;;;;;;5058066;28;20430;-72
2020/12/23 04:07:13;;;;;;;0.88;0.20;;;20.20;53.20;;;;;;5057316;28;20024;-72
2020/12/23 04:09:38;;;;;;;0.22;0.20;;;20.20;53.20;;;;;;5074061;28;20025;-72
2020/12/23 04:12:04;;;;;;;0.10;0.10;;;20.30;53.30;;;;;;5073133;28;20040;-72
2020/12/23 04:14:29;;;;;;;0.22;0.20;;;20.20;53.20;;;;;;5074036;28;20044;-72
2020/12/23 04:16:55;;;;;;;1.55;0.52;;;20.30;53.30;;;;;;5073500;28;20017;-72
2020/12/23 04:19:20;;;;;;;0.10;0.10;;;20.20;53.20;;;;;;5074438;28;20021;-71
2020/12/23 04:21:46;;;;;;;0.30;0.30;;;20.20;53.20;;;;;;5072328;28;20032;-72
2020/12/23 04:24:11;;;;;;;0.38;0.10;;;20.20;53.20;;;;;;5073382;28;20454;-72
2020/12/23 04:26:37;;;;;;;0.10;0.10;;;20.20;53.20;;;;;;5073539;28;20459;-72
2020/12/23 04:29:02;;;;;;;0.60;0.20;;;20.20;53.20;;;;;;5068900;28;20024;-72
2020/12/23 04:31:28;;;;;;;0.10;0.10;;;20.20;53.20;;;;;;5048528;28;20169;-71
2020/12/23 04:33:54;;;;;;;1.35;0.20;;;20.20;53.20;;;;;;5073819;28;20059;-72
2020/12/23 04:36:19;;;;;;;0.10;0.10;;;20.20;53.20;;;;;;5074362;28;20021;-72
2020/12/23 04:38:45;;;;;;;0.20;0.10;;;20.20;53.20;;;;;;5035994;28;20171;-72
2020/12/23 04:41:11;;;;;;;1.48;0.10;;;20.20;53.30;;;;;;5060640;28;20033;-72
2020/12/23 04:43:36;;;;;;;0.20;0.20;;;20.20;53.20;;;;;;5039400;28;20029;-72
2020/12/23 04:46:02;;;;;;;0.30;0.20;;;20.20;53.20;;;;;;5030866;28;20389;-73
2020/12/23 04:48:27;;;;;;;2.72;0.25;;;20.20;53.20;;;;;;5038918;28;20374;-74
2020/12/23 04:50:55;;;;;;;2.00;0.10;;;20.30;53.30;;;;;;5024438;28;20086;-74
2020/12/23 04:53:20;;;;;;;0.75;0.20;;;20.20;53.20;;;;;;5033056;28;20570;-74
2020/12/23 04:55:46;;;;;;;0.40;0.25;;;20.20;53.20;;;;;;5023395;28;20048;-74
2020/12/23 04:58:11;;;;;;;0.60;0.20;;;20.20;53.20;;;;;;5042062;28;20397;-74
2020/12/23 05:00:37;;;;;;;1.83;0.30;;;20.20;53.30;;;;;;5044506;28;20025;-74
2020/12/23 05:03:02;;;;;;;0.73;0.45;;;20.20;53.30;;;;;;5037076;28;20025;-74
2020/12/23 05:05:28;;;;;;;0.10;0.10;;;20.20;53.40;;;;;;5036252;28;20068;-74
2020/12/23 05:07:55;;;;;;;0.00;0.00;;;20.20;53.40;;;;;;5051961;28;21826;-73
2020/12/23 05:10:20;;;;;;;0.00;0.00;;;20.30;53.50;;;;;;5034701;28;20041;-74
2020/12/23 05:12:46;;;;;;;0.00;0.00;;;20.20;53.40;;;;;;5053166;28;20028;-74
2020/12/23 05:15:12;;;;;;;2.28;0.10;;;20.20;53.30;;;;;;5033486;28;20041;-74
2020/12/23 05:17:38;;;;;;;0.75;0.20;;;20.30;54.00;;;;;;5054699;28;20045;-73
2020/12/23 05:20:04;;;;;;;0.73;0.20;;;20.30;53.50;;;;;;5033978;28;20037;-74
2020/12/23 05:22:29;;;;;;;0.38;0.20;;;20.40;53.40;;;;;;5053015;28;20016;-74
2020/12/23 05:24:55;;;;;;;0.30;0.20;;;20.40;53.40;;;;;;5036222;28;20029;-74
2020/12/23 05:27:22;;;;;;;0.70;0.10;;;20.40;53.30;;;;;;5035682;28;20046;-74
2020/12/23 05:30:18;;;;;;;0.10;0.00;;;20.50;53.30;;;;;;5026902;28;20041;-74
2020/12/23 05:32:45;;;;;;;3.10;0.15;;;20.50;53.30;;;;;;5023859;28;20025;-74
2020/12/23 05:35:10;;;;;;;0.32;0.20;;;20.50;53.10;;;;;;5002290;28;20041;-74
2020/12/23 05:37:36;;;;;;;1.30;0.20;;;20.60;53.10;;;;;;5034532;28;20032;-73
2020/12/23 05:40:02;;;;;;;0.05;0.00;;;20.60;53.10;;;;;;5049809;28;20045;-74
2020/12/23 05:42:27;;;;;;;0.20;0.00;;;20.60;52.90;;;;;;5031719;28;20037;-74
2020/12/23 05:44:53;;;;;;;0.10;0.10;;;20.70;53.00;;;;;;5035434;28;20028;-74
2020/12/23 05:47:26;;;;;;;0.00;0.00;;;20.70;52.90;;;;;;5034246;28;20112;-73
2020/12/23 05:49:52;;;;;;;0.03;0.00;;;20.70;52.80;;;;;;5035962;28;20083;-72
2020/12/23 05:52:22;;;;;;;0.52;0.05;;;20.80;52.80;;;;;;5034235;28;20063;-74
2020/12/23 05:54:53;;;;;;;0.00;0.00;;;20.80;52.70;;;;;;5020267;28;20033;-74
2020/12/23 05:57:19;;;;;;;0.10;0.10;;;20.80;52.70;;;;;;5051740;28;20408;-73
2020/12/23 05:59:45;;;;;;;0.00;0.00;;;20.80;52.60;;;;;;5051822;28;20029;-74
2020/12/23 06:02:12;;;;;;;0.00;0.00;;;20.90;52.60;;;;;;5037868;28;20075;-73
2020/12/23 06:04:42;;;;;;;3.25;0.10;;;20.90;52.50;;;;;;5018435;28;20554;-74
2020/12/23 06:07:07;;;;;;;0.45;0.08;;;20.90;52.50;;;;;;5027814;28;20021;-73
2020/12/23 06:09:46;;;;;;;0.10;0.00;;;20.90;52.40;;;;;;5005887;28;20167;-74
2020/12/23 06:12:15;;;;;;;0.00;0.00;;;20.90;52.40;;;;;;5034228;28;20041;-74
2020/12/23 06:14:54;;;;;;;0.00;0.00;;;20.90;52.40;;;;;;5052133;28;20078;-74
2020/12/23 06:17:21;;;;;;;0.65;0.10;;;21.00;52.30;;;;;;5035564;28;20116;-74
2020/12/23 06:19:48;;;;;;;0.22;0.10;;;20.90;52.20;;;;;;5034743;28;20033;-74
2020/12/23 06:22:14;;;;;;;0.13;0.00;;;20.90;52.30;;;;;;5032420;28;20012;-74
2020/12/23 06:24:39;;;;;;;0.00;0.00;;;20.90;52.40;;;;;;5035823;28;20497;-73
2020/12/23 06:27:07;;;;;;;1.65;0.00;;;21.00;52.40;;;;;;5051836;28;20029;-74
2020/12/23 06:29:33;;;;;;;0.22;0.10;;;21.00;52.30;;;;;;5010586;28;20124;-74
2020/12/23 06:32:02;;;;;;;0.20;0.00;;;21.00;52.30;;;;;;5034138;28;20480;-74
2020/12/23 06:34:30;;;;;;;0.00;0.00;;;21.00;52.30;;;;;;5034244;28;20075;-74
2020/12/23 06:36:56;;;;;;;0.00;0.00;;;21.00;52.40;;;;;;5034452;28;20017;-74
2020/12/23 06:39:31;;;;;;;0.13;0.03;;;21.00;52.40;;;;;;5017631;28;20516;-74
2020/12/23 06:42:00;;;;;;;0.30;0.10;;;21.00;52.40;;;;;;5035978;28;20053;-73
2020/12/23 06:44:46;;;;;;;0.10;0.10;;;21.00;52.30;;;;;;5052129;28;20103;-74
2020/12/23 06:47:25;;;;;;;0.52;0.32;;;21.00;52.30;;;;;;5027727;28;20451;-74
2020/12/23 06:50:25;;;;;;;0.47;0.10;;;21.00;52.30;;;;;;5031943;28;20115;-74
2020/12/23 06:52:51;;;;;;;0.00;0.00;;;21.10;52.30;;;;;;5046005;28;20033;-74
2020/12/23 06:55:16;;;;;;;0.00;0.00;;;21.10;52.20;;;;;;5029906;28;20033;-74
2020/12/23 06:57:44;;;;;;;0.00;0.00;;;21.20;52.20;;;;;;5055576;28;20115;-73
2020/12/23 07:00:25;;;;;;;0.00;0.00;;;21.10;52.20;;;;;;5061297;28;20059;-73
2020/12/23 07:03:05;;;;;;;0.20;0.00;;;21.10;52.20;;;;;;5049831;28;20427;-73
2020/12/23 07:05:31;;;;;;;0.00;0.00;;;21.10;52.20;;;;;;5060614;28;20099;-73
2020/12/23 07:07:58;;;;;;;0.60;0.13;;;21.10;52.20;;;;;;5070443;28;20025;-74
2020/12/23 07:10:24;;;;;;;0.00;0.00;;;21.10;52.20;;;;;;5068996;28;20086;-73
2020/12/23 07:12:53;;;;;;;1.85;0.10;;;21.10;52.20;;;;;;5063461;28;20086;-74
2020/12/23 07:15:23;;;;;;;0.00;0.00;;;21.10;52.20;;;;;;5043993;28;20492;-73
2020/12/23 07:17:50;;;;;;;0.00;0.00;;;21.10;52.20;;;;;;5051368;28;20018;-74
2020/12/23 07:20:16;;;;;;;0.00;0.00;;;21.10;52.30;;;;;;5041783;28;20133;-74
2020/12/23 07:22:54;;;;;;;0.00;0.00;;;21.10;52.30;;;;;;5026858;28;20068;-75
2020/12/23 07:25:24;;;;;;;0.00;0.00;;;21.10;52.20;;;;;;5048477;28;20032;-74
2020/12/23 07:27:57;;;;;;;0.00;0.00;;;21.10;52.20;;;;;;5060661;28;20032;-73
2020/12/23 07:30:23;;;;;;;0.00;0.00;;;21.10;52.30;;;;;;5039030;28;20068;-73
2020/12/23 07:33:05;;;;;;;0.05;0.03;;;21.10;52.30;;;;;;5055975;28;20534;-73
2020/12/23 07:35:31;;;;;;;0.20;0.10;;;21.10;52.20;;;;;;5024313;28;20033;-74
2020/12/23 07:37:58;;;;;;;0.00;0.00;;;21.10;52.20;;;;;;5023573;28;20048;-75
2020/12/23 07:40:24;;;;;;;0.00;0.00;;;21.10;52.20;;;;;;5042782;28;20123;-73
2020/12/23 07:42:50;;;;;;;0.00;0.00;;;21.10;52.20;;;;;;5046179;28;20430;-73
2020/12/23 07:45:18;;;;;;;0.00;0.00;;;21.10;52.20;;;;;;5024754;28;20049;-73
2020/12/23 07:47:59;;;;;;;0.17;0.10;;;21.10;52.20;;;;;;5050160;28;20039;-73
2020/12/23 07:50:26;;;;;;;0.00;0.00;;;21.20;52.20;;;;;;5059081;28;20025;-73
2020/12/23 07:52:52;;;;;;;0.00;0.00;;;21.20;52.20;;;;;;5057801;28;20694;-73
2020/12/23 07:55:18;;;;;;;0.17;0.00;;;21.20;52.20;;;;;;5017457;28;20036;-73
2020/12/23 07:57:44;;;;;;;0.13;0.13;;;21.30;52.30;;;;;;5025636;28;20403;-73
2020/12/23 08:00:28;;;;;;;0.00;0.00;;;21.30;52.30;;;;;;5070440;28;20025;-73
2020/12/23 08:02:54;;;;;;;0.05;0.00;;;21.30;52.30;;;;;;5033099;28;20210;-75
2020/12/23 08:05:19;;;;;;;0.00;0.00;;;21.30;52.30;;;;;;5072317;28;20115;-75
2020/12/23 08:07:45;;;;;;;0.43;0.17;;;21.30;52.30;;;;;;5061506;28;20075;-72
2020/12/23 08:10:14;;;;;;;0.10;0.10;;;21.30;52.10;;;;;;5056348;28;20500;-74
2020/12/23 08:12:54;;;;;;;0.10;0.10;;;21.40;52.10;;;;;;5036213;28;20060;-74
2020/12/23 08:15:19;;;;;;;0.52;0.10;;;21.40;52.00;;;;;;5051439;28;20037;-76
2020/12/23 08:17:45;;;;;;;0.10;0.10;;;21.40;52.00;;;;;;5051109;28;20031;-76
2020/12/23 08:20:13;;;;;;;0.00;0.00;;;21.40;52.00;;;;;;5028576;28;20033;-76
2020/12/23 08:22:40;;;;;;;0.00;0.00;;;21.40;51.90;;;;;;5059816;28;20021;-76
2020/12/23 08:25:07;;;;;;;0.00;0.00;;;21.40;51.90;;;;;;5043972;28;20468;-73
2020/12/23 08:27:32;;;;;;;0.17;0.13;;;21.40;51.90;;;;;;5017193;28;20037;-74
2020/12/23 08:29:59;;;;;;;0.10;0.10;;;21.40;51.90;;;;;;5040619;28;20463;-75
2020/12/23 08:32:26;;;;;;;0.38;0.17;;;21.40;51.90;;;;;;5025691;28;20045;-75
2020/12/23 08:34:52;;;;;;;0.32;0.10;;;21.40;51.90;;;;;;5038610;28;20025;-75
2020/12/23 08:37:22;;;;;;;0.20;0.20;;;21.30;51.90;;;;;;5027103;28;20455;-76
2020/12/23 08:39:55;;;;;;;0.10;0.00;;;21.40;51.90;;;;;;5029726;28;20037;-75
2020/12/23 08:42:27;;;;;;;0.10;0.10;;;21.40;51.90;;;;;;5052836;28;20487;-74
2020/12/23 08:44:54;;;;;;;0.22;0.10;;;21.40;51.90;;;;;;5055884;28;20051;-74
2020/12/23 08:47:21;;;;;;;0.17;0.10;;;21.30;51.80;;;;;;5042525;28;20553;-76
2020/12/23 08:49:47;;;;;;;1.25;0.47;;;21.30;51.90;;;;;;5042163;28;20028;-76
2020/12/23 08:52:17;;;;;;;0.40;0.10;;;21.30;52.00;;;;;;5025979;28;20119;-76
2020/12/23 08:54:43;;;;;;;0.10;0.10;;;21.30;52.00;;;;;;5049411;28;20040;-76
2020/12/23 08:57:09;;;;;;;0.32;0.00;;;21.20;52.00;;;;;;5069336;28;20035;-76
2020/12/23 08:59:40;;;;;;;0.35;0.20;;;21.30;52.10;;;;;;5025935;28;20021;-76
2020/12/23 09:02:13;;;;;;;0.08;0.00;;;21.30;52.10;;;;;;5063865;28;20047;-76
2020/12/23 09:04:39;;;;;;;0.10;0.10;;;21.30;52.10;;;;;;5035288;28;20053;-75
2020/12/23 09:07:04;;;;;;;2.63;0.28;;;21.30;52.00;;;;;;5040539;28;20025;-76
2020/12/23 09:09:30;;;;;;;0.65;0.17;;;21.30;52.00;;;;;;5041976;28;20064;-75
2020/12/23 09:11:57;;;;;;;0.57;0.00;;;21.30;51.90;;;;;;5073216;28;20040;-76
2020/12/23 09:14:27;;;;;;;0.63;0.20;;;21.30;51.90;;;;;;5061786;28;20086;-75
2020/12/23 09:16:56;;;;;;;0.57;0.20;;;21.30;52.00;;;;;;5041840;28;20049;-75
2020/12/23 09:19:43;;;;;;;0.20;0.20;;;21.30;52.00;;;;;;5055616;28;20392;-73
2020/12/23 09:22:10;;;;;;;0.00;0.00;;;21.30;52.10;;;;;;5067554;28;20028;-73
2020/12/23 09:24:36;;;;;;;0.15;0.10;;;21.30;52.10;;;;;;5050420;28;20024;-73
2020/12/23 09:27:15;;;;;;;0.30;0.20;;;21.30;52.10;;;;;;5069643;28;20111;-74
2020/12/23 09:29:42;;;;;;;0.00;0.00;;;21.30;52.00;;;;;;5067014;28;20036;-74
2020/12/23 09:32:07;;;;;;;0.00;0.00;;;21.30;52.00;;;;;;5051172;28;20112;-73
2020/12/23 09:34:33;;;;;;;0.08;0.05;;;21.30;52.00;;;;;;5058302;28;20107;-74
2020/12/23 09:36:58;;;;;;;0.40;0.08;;;21.30;52.10;;;;;;5067483;28;20027;-73
2020/12/23 09:42:50;;;;;;;3.95;0.13;;;21.30;52.10;;;;;;5040037;28;20530;-74
2020/12/23 09:45:16;;;;;;;0.30;0.10;;;21.20;52.20;;;;;;5055544;28;20056;-73
2020/12/23 09:47:42;;;;;;;0.00;0.00;;;21.20;52.20;;;;;;5061500;28;20083;-74
2020/12/23 09:50:08;;;;;;;0.05;0.05;;;21.20;52.20;;;;;;5021531;28;20412;-74
2020/12/23 09:52:34;;;;;;;0.00;0.00;;;21.20;52.80;;;;;;5051060;28;20039;-73
2020/12/23 09:54:59;;;;;;;0.20;0.10;;;21.10;52.20;;;;;;5038507;28;20047;-74
2020/12/23 09:57:25;;;;;;;0.00;0.00;;;21.10;52.20;;;;;;5046447;28;20115;-73
2020/12/23 09:59:50;;;;;;;0.20;0.10;;;21.20;53.00;;;;;;5051218;28;20392;-73
2020/12/23 10:02:16;;;;;;;0.13;0.13;;;21.10;52.30;;;;;;5052232;28;20064;-73
2020/12/23 10:04:41;;;;;;;0.32;0.32;;;21.10;52.40;;;;;;5052367;28;20029;-73
2020/12/23 10:07:09;;;;;;;0.10;0.10;;;21.10;52.40;;;;;;5066815;28;20028;-73
2020/12/23 10:10:00;;;;;;;0.00;0.00;;;21.10;52.40;;;;;;5061952;28;20044;-73
2020/12/23 10:12:25;;;;;;;0.55;0.20;;;21.10;52.40;;;;;;5061062;28;20048;-73
2020/12/23 10:14:53;;;;;;;0.00;0.00;;;21.10;52.20;;;;;;5058418;28;20730;-73
2020/12/23 10:17:19;;;;;;;0.22;0.15;;;21.10;52.90;;;;;;5015580;28;20037;-73
2020/12/23 10:19:45;;;;;;;0.10;0.10;;;21.20;52.20;;;;;;5034486;28;20029;-72
2020/12/23 10:22:23;;;;;;;0.08;0.03;;;21.20;52.20;;;;;;5060936;28;20433;-73
2020/12/23 10:24:48;;;;;;;0.35;0.20;;;21.20;52.20;;;;;;5037791;28;20403;-73
2020/12/23 10:27:14;;;;;;;0.00;0.00;;;21.20;52.20;;;;;;5049535;28;20028;-73
2020/12/23 10:29:39;;;;;;;0.45;0.20;;;21.20;52.20;;;;;;5043460;28;20082;-73
2020/12/23 10:32:05;;;;;;;0.00;0.00;;;21.20;52.20;;;;;;5037196;28;20036;-73
2020/12/23 10:34:30;;;;;;;0.00;0.00;;;21.20;52.20;;;;;;5037682;28;20037;-73
2020/12/23 10:36:56;;;;;;;0.05;0.00;;;21.30;52.30;;;;;;5046995;28;20031;-73
2020/12/23 10:39:23;;;;;;;0.00;0.00;;;21.30;52.30;;;;;;5065866;28;20044;-75
2020/12/23 10:41:52;;;;;;;0.08;0.08;;;21.30;52.30;;;;;;5039639;28;20511;-74
2020/12/23 10:44:18;;;;;;;0.08;0.08;;;21.30;52.60;;;;;;5046534;28;20427;-74
2020/12/23 10:46:43;;;;;;;0.00;0.00;;;21.30;52.30;;;;;;5060601;28;20033;-74
2020/12/23 10:49:09;;;;;;;0.00;0.00;;;21.30;52.30;;;;;;5034991;28;20087;-75
2020/12/23 10:51:34;;;;;;;0.00;0.00;;;21.30;52.30;;;;;;5050855;28;20040;-74
2020/12/23 10:54:00;;;;;;;3.65;0.10;;;21.40;52.10;;;;;;5061607;28;20033;-73
2020/12/23 10:56:28;;;;;;;0.00;0.00;;;21.40;52.10;;;;;;5070429;28;20016;-74
2020/12/23 10:58:54;;;;;;;0.00;0.00;;;21.40;52.60;;;;;;5054923;28;20503;-75
2020/12/23 11:01:20;;;;;;;0.00;0.00;;;21.40;52.00;;;;;;5069348;28;20101;-73
2020/12/23 11:03:45;;;;;;;0.00;0.00;;;21.40;52.00;;;;;;5028028;28;20067;-73
2020/12/23 11:06:14;;;;;;;0.00;0.00;;;21.50;52.00;;;;;;5024384;28;20408;-74
2020/12/23 11:08:43;;;;;;;0.30;0.10;;;21.50;52.00;;;;;;5010446;28;20044;-74
2020/12/23 11:11:13;;;;;;;0.00;0.00;;;21.40;52.00;;;;;;5027556;28;20415;-74
2020/12/23 11:13:40;;;;;;;0.28;0.00;;;21.40;52.00;;;;;;5058247;28;20021;-74
2020/12/23 11:16:05;;;;;;;0.43;0.08;;;21.40;52.00;;;;;;5054514;28;20480;-73
2020/12/23 11:18:31;;;;;;;0.98;0.20;;;21.40;52.10;;;;;;5029073;28;20095;-74
2020/12/23 11:20:56;;;;;;;0.10;0.10;;;21.40;52.20;;;;;;5056593;28;20044;-74
2020/12/23 11:23:26;;;;;;;1.20;0.28;;;21.30;52.30;;;;;;5042966;28;20017;-74
2020/12/23 11:25:51;;;;;;;1.38;0.05;;;21.30;52.30;;;;;;5035477;28;20029;-73
2020/12/23 11:28:17;;;;;;;0.38;0.00;;;21.30;52.30;;;;;;5040655;28;20108;-74
2020/12/23 11:30:43;;;;;;;0.00;0.00;;;21.30;52.30;;;;;;5056909;28;20036;-73
2020/12/23 11:33:08;;;;;;;0.08;0.08;;;21.30;52.30;;;;;;5037120;28;20036;-74
2020/12/23 11:35:34;;;;;;;0.10;0.10;;;21.30;52.30;;;;;;5047592;28;20031;-74
2020/12/23 11:38:00;;;;;;;0.00;0.00;;;21.30;52.30;;;;;;5054780;28;20400;-74
2020/12/23 11:40:25;;;;;;;0.10;0.10;;;21.40;52.30;;;;;;5042405;28;20036;-74
2020/12/23 11:42:51;;;;;;;0.10;0.10;;;21.40;52.10;;;;;;5030794;28;20733;-74
2020/12/23 11:45:16;;;;;;;0.00;0.00;;;21.50;52.00;;;;;;5053729;28;20025;-74
2020/12/23 11:48:16;;;;;;;0.47;0.10;;;21.50;51.90;;;;;;5054135;28;20033;-74
2020/12/23 11:50:42;;;;;;;0.10;0.10;;;21.60;51.80;;;;;;5053869;28;20025;-74
2020/12/23 11:53:07;;;;;;;0.10;0.10;;;21.60;51.70;;;;;;5039499;28;20078;-74
2020/12/23 11:55:33;;;;;;;0.10;0.05;;;21.70;51.70;;;;;;5032218;28;20581;-74
2020/12/23 11:57:59;;;;;;;0.20;0.20;;;21.70;51.70;;;;;;5057535;28;20420;-74
2020/12/23 12:00:24;;;;;;;0.38;0.20;;;21.60;51.60;;;;;;5056502;28;20052;-74
2020/12/23 12:02:50;;;;;;;1.95;0.38;;;21.60;51.70;;;;;;5020477;28;20066;-74
2020/12/23 12:05:15;;;;;;;0.40;0.38;;;21.60;51.80;;;;;;5056997;28;20531;-74
2020/12/23 12:11:03;;;;;;;0.30;0.20;;;21.50;51.90;;;;;;5057906;28;20460;-74
2020/12/23 12:13:29;;;;;;;0.30;0.30;;;21.50;52.00;;;;;;5052330;28;20059;-74
2020/12/23 12:15:54;;;;;;;2.70;0.40;;;21.40;52.70;;;;;;5071125;28;20491;-74
2020/12/23 12:18:20;;;;;;;0.63;0.63;;;21.40;52.20;;;;;;5043956;28;20517;-73
2020/12/23 12:20:45;;;;;;;0.08;0.08;;;21.40;52.30;;;;;;5067241;28;20107;-74
2020/12/23 12:23:11;;;;;;;0.50;0.30;;;21.30;52.30;;;;;;5057816;28;20035;-74
2020/12/23 12:25:38;;;;;;;0.50;0.20;;;21.40;52.30;;;;;;5036628;28;20039;-74
2020/12/23 12:28:04;;;;;;;1.48;0.28;;;21.30;52.30;;;;;;5026571;28;20028;-74
2020/12/23 12:30:29;;;;;;;0.63;0.10;;;21.30;52.30;;;;;;5039128;28;20403;-74
2020/12/23 12:32:55;;;;;;;0.57;0.38;;;21.30;52.50;;;;;;5029905;28;20028;-74
2020/12/23 12:35:21;;;;;;;0.85;0.20;;;21.30;52.50;;;;;;5040779;28;20032;-74
2020/12/23 12:37:46;;;;;;;0.57;0.30;;;21.30;52.50;;;;;;5048233;28;20103;-74
2020/12/23 12:40:12;;;;;;;1.00;0.30;;;21.20;52.40;;;;;;5065443;28;20044;-74
2020/12/23 12:42:37;;;;;;;0.52;0.15;;;21.30;52.50;;;;;;5055564;28;20099;-74
2020/12/23 12:45:03;;;;;;;0.38;0.32;;;21.20;52.50;;;;;;5052550;28;20484;-74
2020/12/23 12:47:28;;;;;;;1.65;0.22;;;21.30;52.50;;;;;;5069472;28;20624;-74
2020/12/23 12:49:54;;;;;;;0.57;0.15;;;21.20;52.60;;;;;;5058532;28;20037;-74
2020/12/23 12:52:19;;;;;;;0.47;0.20;;;21.20;52.40;;;;;;5060791;28;20033;-75
2020/12/23 12:54:45;;;;;;;0.20;0.10;;;21.20;52.50;;;;;;5061250;28;20060;-74